Time;durP1;ratioP1;P1;durP2;ratioP2;P2;SDS_P1;SDS_P2;PMS_P1;PMS_P2;Temp;Humidity;BMP_temperature;BMP_pressure;BME280_temperature;BME280_humidity;BME280_pressure;Samples;Min_cycle;Max_cycle;Signal;HPM_P1;HPM_P2
2022/02/01 00:02:04;;;;;;;1.70;1.38;;;25.50;53.90;;;;;;5024203;28;20206;-46
2022/02/01 00:04:42;;;;;;;2.95;1.70;;;25.50;54.00;;;;;;5023689;28;20234;-50
2022/02/01 00:07:21;;;;;;;2.33;1.60;;;25.50;53.90;;;;;;5022877;28;20223;-56
2022/02/01 00:10:00;;;;;;;2.53;1.33;;;25.50;53.90;;;;;;5021721;28;20203;-47
2022/02/01 00:12:41;;;;;;;3.28;1.48;;;25.60;53.90;;;;;;5038702;22;20892;-45
2022/02/01 00:15:29;;;;;;;2.08;1.50;;;25.60;53.90;;;;;;5042633;28;20207;-43
2022/02/01 00:18:16;;;;;;;2.85;1.58;;;25.60;53.90;;;;;;5027016;28;20224;-48
2022/02/01 00:35:10;;;;;;;2.15;1.60;;;25.80;53.80;;;;;;5026128;28;20199;-47
2022/02/01 00:37:54;;;;;;;2.95;1.73;;;25.80;53.80;;;;;;5025962;28;20223;-47
2022/02/01 00:40:27;;;;;;;2.78;1.48;;;25.80;53.80;;;;;;5026906;28;20196;-43
2022/02/01 00:42:58;;;;;;;2.75;1.80;;;25.90;53.80;;;;;;5026742;28;20262;-43
2022/02/01 00:45:28;;;;;;;4.28;2.13;;;25.90;53.90;;;;;;5025626;28;20255;-52
2022/02/01 00:47:59;;;;;;;2.20;1.75;;;25.90;53.90;;;;;;5027498;28;20675;-45
2022/02/01 00:50:30;;;;;;;2.70;1.60;;;25.90;54.00;;;;;;5025978;28;20682;-46
2022/02/01 00:53:00;;;;;;;1.85;1.40;;;26.00;54.00;;;;;;5026646;28;20188;-45
2022/02/01 00:55:33;;;;;;;3.38;1.73;;;26.00;53.90;;;;;;5025683;28;20230;-41
2022/02/01 00:58:03;;;;;;;2.10;1.48;;;26.00;53.90;;;;;;5027222;28;20220;-48
2022/02/01 01:00:34;;;;;;;2.38;1.60;;;26.00;53.80;;;;;;5026845;28;20894;-48
2022/02/01 01:03:04;;;;;;;2.50;1.80;;;26.00;53.80;;;;;;5027012;28;20269;-47
2022/02/01 01:05:35;;;;;;;2.83;1.52;;;26.10;53.80;;;;;;5025897;28;20243;-51
2022/02/01 01:08:06;;;;;;;2.03;1.60;;;26.10;53.80;;;;;;5026798;28;20351;-48
2022/02/01 01:10:39;;;;;;;2.22;1.50;;;26.10;53.70;;;;;;5027322;28;20250;-45
2022/02/01 01:13:24;;;;;;;2.05;1.52;;;26.10;53.80;;;;;;5028812;28;20200;-53
2022/02/01 01:16:01;;;;;;;2.80;1.67;;;26.20;53.80;;;;;;5025584;28;20706;-49
2022/02/01 01:18:57;;;;;;;2.35;1.55;;;26.20;53.80;;;;;;5025482;28;20232;-48
2022/02/01 01:43:47;;;;;;;3.72;1.90;;;26.30;53.70;;;;;;5027011;28;20250;-44
2022/02/01 01:54:42;;;;;;;3.65;1.95;;;26.40;53.70;;;;;;5030208;28;20215;-44
2022/02/01 01:57:12;;;;;;;3.08;1.92;;;26.40;53.60;;;;;;5065794;22;20279;-47
2022/02/01 01:59:46;;;;;;;5.53;1.95;;;26.50;53.70;;;;;;5065688;28;20747;-41
2022/02/01 02:02:16;;;;;;;3.60;2.03;;;26.50;53.80;;;;;;5066902;28;20211;-48
2022/02/01 02:04:47;;;;;;;4.00;2.08;;;26.50;53.80;;;;;;5066462;28;20195;-44
2022/02/01 02:07:17;;;;;;;4.55;2.00;;;26.50;53.80;;;;;;5087910;28;20700;-46
2022/02/01 02:09:48;;;;;;;3.83;1.83;;;26.50;53.80;;;;;;5084784;28;20194;-44
2022/02/01 02:12:35;;;;;;;3.22;2.10;;;26.50;53.80;;;;;;5085055;28;20198;-47
2022/02/01 02:15:07;;;;;;;3.85;2.00;;;26.50;53.80;;;;;;5085320;28;20206;-47
2022/02/01 02:17:37;;;;;;;3.85;2.00;;;26.50;53.80;;;;;;5082534;28;20194;-45
2022/02/01 02:20:09;;;;;;;3.85;2.38;;;26.50;53.80;;;;;;5084798;28;20202;-42
2022/02/01 02:22:41;;;;;;;4.88;2.30;;;26.50;53.80;;;;;;5086070;28;20242;-42
2022/02/01 02:25:12;;;;;;;2.80;2.25;;;26.60;53.80;;;;;;5087674;28;20198;-43
2022/02/01 02:27:43;;;;;;;3.35;2.17;;;26.60;53.70;;;;;;5086738;28;20603;-43
2022/02/01 02:30:14;;;;;;;2.63;2.13;;;26.60;53.70;;;;;;5085424;28;20735;-45
2022/02/01 02:32:45;;;;;;;2.88;2.10;;;26.70;53.70;;;;;;5082618;28;20202;-53
2022/02/01 02:35:15;;;;;;;2.88;2.25;;;26.60;53.60;;;;;;5082829;28;20653;-48
2022/02/01 02:37:48;;;;;;;4.10;2.20;;;26.70;53.60;;;;;;5084218;28;20198;-42
2022/02/01 02:40:34;;;;;;;5.40;2.28;;;26.70;53.60;;;;;;5088050;28;20812;-42
2022/02/01 02:45:50;;;;;;;4.13;2.22;;;26.70;54.10;;;;;;5086831;28;20217;-43
2022/02/01 02:48:21;;;;;;;3.85;2.53;;;26.80;53.50;;;;;;5087684;28;20198;-49
2022/02/01 02:50:52;;;;;;;2.85;2.17;;;26.80;53.50;;;;;;5084651;28;20248;-42
2022/02/01 02:53:24;;;;;;;3.72;2.20;;;26.80;53.50;;;;;;5083869;28;20251;-42
2022/02/01 02:55:55;;;;;;;2.85;2.10;;;26.80;53.50;;;;;;5085737;28;20222;-49
2022/02/01 02:58:25;;;;;;;3.25;2.15;;;26.80;53.30;;;;;;5084207;28;20226;-46
2022/02/01 03:00:56;;;;;;;3.05;1.98;;;26.80;53.30;;;;;;5087852;28;20766;-42
2022/02/01 03:03:26;;;;;;;3.22;2.03;;;26.90;53.40;;;;;;5084898;28;20209;-46
2022/02/01 03:05:57;;;;;;;4.53;1.98;;;26.90;53.40;;;;;;5084771;28;20222;-46
2022/02/01 03:08:29;;;;;;;4.55;2.20;;;26.90;53.30;;;;;;5084102;28;20206;-46
2022/02/01 03:11:01;;;;;;;3.72;2.30;;;26.90;53.30;;;;;;5082914;28;20198;-45
2022/02/01 03:13:34;;;;;;;2.47;1.95;;;26.90;53.30;;;;;;5084945;28;20603;-48
2022/02/01 03:16:10;;;;;;;3.85;2.35;;;26.90;53.20;;;;;;5085179;28;20561;-43
2022/02/01 03:21:27;;;;;;;3.22;2.20;;;27.00;53.30;;;;;;5069372;28;20209;-46
2022/02/01 03:24:00;;;;;;;5.18;2.60;;;27.00;53.80;;;;;;5083039;28;20251;-44
2022/02/01 03:26:30;;;;;;;3.75;2.35;;;27.00;53.10;;;;;;5068932;28;20219;-47
2022/02/01 03:29:01;;;;;;;3.35;2.25;;;27.10;53.20;;;;;;5076371;28;20275;-46
2022/02/01 03:31:32;;;;;;;2.05;1.80;;;27.10;53.20;;;;;;5076083;28;20256;-49
2022/02/01 03:34:02;;;;;;;3.30;2.38;;;27.10;53.10;;;;;;5067115;28;20198;-42
2022/02/01 03:36:33;;;;;;;2.95;2.00;;;27.20;53.20;;;;;;5062707;28;20225;-49
2022/02/01 03:39:06;;;;;;;3.15;2.20;;;27.20;53.10;;;;;;5079920;28;20226;-47
2022/02/01 03:41:36;;;;;;;2.47;2.10;;;27.20;53.00;;;;;;5083172;28;20198;-49
2022/02/01 03:44:07;;;;;;;3.67;2.50;;;27.30;53.00;;;;;;5078492;28;20259;-44
2022/02/01 03:46:38;;;;;;;2.95;2.17;;;27.30;53.00;;;;;;5083554;28;20222;-42
2022/02/01 03:49:09;;;;;;;3.17;1.95;;;27.30;53.00;;;;;;5084294;28;20685;-41
2022/02/01 03:51:39;;;;;;;3.75;2.30;;;27.30;52.90;;;;;;5083503;28;20611;-46
2022/02/01 03:54:12;;;;;;;2.58;2.00;;;27.30;52.80;;;;;;5087274;28;20194;-46
2022/02/01 03:56:43;;;;;;;4.30;2.17;;;27.30;52.80;;;;;;5083373;28;20230;-49
2022/02/01 03:59:13;;;;;;;2.53;1.70;;;27.40;52.80;;;;;;5083337;28;20233;-43
2022/02/01 04:01:44;;;;;;;2.50;1.88;;;27.40;52.80;;;;;;5083976;28;20251;-41
2022/02/01 04:04:14;;;;;;;2.60;1.92;;;27.40;52.70;;;;;;5081509;28;20611;-44
2022/02/01 04:06:45;;;;;;;2.70;2.00;;;27.40;52.60;;;;;;5084481;28;20222;-47
2022/02/01 04:09:17;;;;;;;3.78;2.13;;;27.50;52.70;;;;;;5086283;28;20195;-51
2022/02/01 04:11:48;;;;;;;4.22;2.15;;;27.50;52.70;;;;;;5083500;28;20198;-46
2022/02/01 04:14:22;;;;;;;2.50;2.20;;;27.50;52.60;;;;;;5085319;28;20251;-41
2022/02/01 04:16:52;;;;;;;3.75;2.30;;;27.50;52.60;;;;;;5083462;28;20222;-47
2022/02/01 04:19:23;;;;;;;3.53;2.17;;;27.50;52.60;;;;;;5083307;28;20221;-42
2022/02/01 04:22:00;;;;;;;2.05;1.88;;;27.50;52.60;;;;;;5082761;28;20210;-45
2022/02/01 04:24:37;;;;;;;2.30;2.00;;;27.60;52.70;;;;;;5083472;28;20274;-42
2022/02/01 04:27:11;;;;;;;3.15;2.20;;;27.60;52.70;;;;;;5085843;28;20253;-43
2022/02/01 04:29:47;;;;;;;2.38;2.17;;;27.60;52.60;;;;;;5086034;28;20252;-43
2022/02/01 04:32:17;;;;;;;2.97;2.10;;;27.60;52.50;;;;;;5087384;28;20190;-41
2022/02/01 04:34:54;;;;;;;2.65;2.08;;;27.70;52.60;;;;;;5081222;28;20203;-44
2022/02/01 04:37:25;;;;;;;3.65;2.45;;;27.60;52.50;;;;;;5083062;28;20217;-50
2022/02/01 04:39:58;;;;;;;2.90;2.08;;;27.70;52.40;;;;;;5082282;28;20313;-49
2022/02/01 04:42:32;;;;;;;2.80;2.28;;;27.70;52.50;;;;;;5084577;28;20255;-48
2022/02/01 04:45:02;;;;;;;3.47;2.15;;;27.70;52.30;;;;;;5084148;28;20198;-48
2022/02/01 04:47:34;;;;;;;2.08;1.88;;;27.70;52.40;;;;;;5085188;28;20684;-41
2022/02/01 04:50:11;;;;;;;2.15;1.90;;;27.70;52.40;;;;;;5086356;28;20198;-43
2022/02/01 04:52:43;;;;;;;2.13;1.92;;;27.70;52.40;;;;;;5085363;28;20201;-41
2022/02/01 04:55:16;;;;;;;2.45;1.92;;;27.80;52.40;;;;;;5083074;28;20713;-41
2022/02/01 04:57:54;;;;;;;2.42;1.98;;;27.80;52.40;;;;;;5085573;28;20560;-50
2022/02/01 05:00:26;;;;;;;2.15;1.95;;;27.80;52.30;;;;;;5087713;28;20236;-43
2022/02/01 05:02:57;;;;;;;2.80;2.00;;;27.80;52.30;;;;;;5088654;28;20720;-44
2022/02/01 05:05:30;;;;;;;3.03;2.00;;;27.80;52.40;;;;;;5088715;28;20263;-42
2022/02/01 05:08:02;;;;;;;2.45;2.20;;;27.80;52.40;;;;;;5087376;28;20198;-45
2022/02/01 05:10:36;;;;;;;2.72;1.90;;;27.90;52.50;;;;;;5087702;28;20206;-42
2022/02/01 05:16:03;;;;;;;2.30;2.10;;;27.80;52.50;;;;;;5079008;28;20259;-47
2022/02/01 05:18:45;;;;;;;2.13;1.92;;;27.90;52.40;;;;;;5084924;28;20194;-44
2022/02/01 05:21:21;;;;;;;2.80;2.30;;;27.90;52.40;;;;;;5086035;28;20289;-44
2022/02/01 05:23:52;;;;;;;3.33;2.38;;;28.00;52.30;;;;;;5088217;28;20273;-47
2022/02/01 05:26:27;;;;;;;2.42;1.95;;;28.00;52.20;;;;;;5086186;28;20229;-43
2022/02/01 05:28:58;;;;;;;7.13;3.00;;;28.00;52.20;;;;;;5089122;28;20285;-39
2022/02/01 05:31:29;;;;;;;5.60;2.28;;;28.00;52.20;;;;;;5088237;28;20198;-45
2022/02/01 05:34:00;;;;;;;7.25;2.90;;;28.00;52.30;;;;;;5086469;28;20256;-40
2022/02/01 05:36:30;;;;;;;7.88;2.70;;;28.00;52.50;;;;;;5085299;28;20267;-46
2022/02/01 05:39:01;;;;;;;4.70;2.70;;;28.00;52.60;;;;;;5084945;28;20263;-40
2022/02/01 05:41:35;;;;;;;4.47;2.35;;;28.00;52.70;;;;;;5085565;28;20202;-50
2022/02/01 05:44:08;;;;;;;4.63;2.65;;;28.00;52.60;;;;;;5089205;28;20285;-43
2022/02/01 05:46:39;;;;;;;4.30;2.63;;;28.10;52.70;;;;;;5087477;28;20700;-45
2022/02/01 05:49:10;;;;;;;5.80;2.55;;;28.00;52.60;;;;;;5085250;28;20283;-41
2022/02/01 05:51:41;;;;;;;5.10;2.72;;;28.10;52.70;;;;;;5083665;28;20198;-45
2022/02/01 05:54:11;;;;;;;5.15;2.95;;;28.10;52.60;;;;;;5084936;28;20206;-40
2022/02/01 05:56:44;;;;;;;4.85;2.67;;;28.10;52.60;;;;;;5085678;28;20279;-44
2022/02/01 05:59:14;;;;;;;4.65;2.70;;;28.10;52.60;;;;;;5085729;28;20222;-43
2022/02/01 06:01:45;;;;;;;5.30;3.35;;;28.20;52.70;;;;;;5089562;28;20190;-42
2022/02/01 06:04:15;;;;;;;6.63;3.35;;;28.20;52.60;;;;;;5088137;28;20194;-49
2022/02/01 06:06:46;;;;;;;6.30;3.30;;;28.20;52.60;;;;;;5086969;28;20226;-44
2022/02/01 06:09:17;;;;;;;4.68;3.13;;;28.20;52.60;;;;;;5085510;28;20278;-40
2022/02/01 06:11:49;;;;;;;5.57;3.17;;;28.20;52.50;;;;;;5083612;28;20195;-41
2022/02/01 06:14:20;;;;;;;6.75;3.55;;;28.20;52.50;;;;;;5085591;28;20211;-40
2022/02/01 06:16:50;;;;;;;4.80;3.08;;;28.20;52.40;;;;;;5092966;22;20279;-48
2022/02/01 06:19:21;;;;;;;4.05;2.88;;;28.30;52.50;;;;;;5087863;28;20698;-47
2022/02/01 06:21:51;;;;;;;5.45;3.15;;;28.30;52.40;;;;;;5086746;28;20240;-46
2022/02/01 06:24:22;;;;;;;4.32;3.00;;;28.30;52.30;;;;;;5085245;28;20252;-46
2022/02/01 06:26:54;;;;;;;3.55;2.70;;;28.30;52.20;;;;;;5070328;28;20214;-50
2022/02/01 06:29:25;;;;;;;4.88;2.70;;;28.30;52.20;;;;;;5059387;28;20203;-47
2022/02/01 06:31:56;;;;;;;4.40;2.90;;;28.30;52.20;;;;;;5050172;28;20638;-46
2022/02/01 06:34:27;;;;;;;3.20;2.53;;;28.30;52.20;;;;;;5032613;28;20250;-49
2022/02/01 06:36:57;;;;;;;3.60;2.75;;;28.30;52.20;;;;;;5049075;28;20289;-46
2022/02/01 06:39:28;;;;;;;10.43;3.85;;;28.30;52.10;;;;;;5056204;28;20226;-46
2022/02/01 06:42:01;;;;;;;8.90;3.40;;;28.30;52.20;;;;;;5060828;28;20294;-47
2022/02/01 06:44:31;;;;;;;7.03;3.55;;;28.20;52.10;;;;;;5051177;28;20195;-49
2022/02/01 06:47:02;;;;;;;6.38;3.63;;;28.20;52.20;;;;;;5051533;28;20342;-53
2022/02/01 06:49:32;;;;;;;3.65;2.60;;;28.20;52.30;;;;;;5064754;28;20896;-51
2022/02/01 06:52:03;;;;;;;7.85;3.35;;;28.20;52.30;;;;;;5050025;28;20195;-46
2022/02/01 06:54:36;;;;;;;6.05;3.53;;;28.20;52.30;;;;;;5050753;28;20721;-48
2022/02/01 06:57:09;;;;;;;12.52;4.00;;;28.20;52.40;;;;;;5050196;28;20216;-43
2022/02/01 06:59:39;;;;;;;10.00;3.70;;;28.20;52.40;;;;;;5042066;28;20220;-49
2022/02/01 07:02:10;;;;;;;6.47;3.50;;;28.20;52.30;;;;;;5041246;28;20196;-48
2022/02/01 07:04:41;;;;;;;5.50;3.30;;;28.20;52.30;;;;;;5050295;28;20202;-52
2022/02/01 07:07:11;;;;;;;7.18;3.38;;;28.20;52.30;;;;;;5066008;28;20223;-49
2022/02/01 07:09:42;;;;;;;4.97;3.30;;;28.20;52.30;;;;;;5032122;28;20637;-46
2022/02/01 07:12:15;;;;;;;5.95;3.00;;;28.20;52.30;;;;;;5042265;28;20249;-49
2022/02/01 07:14:46;;;;;;;7.72;3.35;;;28.10;52.20;;;;;;5049165;28;20203;-46
2022/02/01 07:17:16;;;;;;;5.32;3.38;;;28.10;52.20;;;;;;5055249;28;21008;-49
2022/02/01 07:19:47;;;;;;;7.68;2.92;;;28.10;52.20;;;;;;5058889;28;20223;-43
2022/02/01 07:22:17;;;;;;;5.10;3.10;;;28.10;52.20;;;;;;5049108;28;20202;-48
2022/02/01 07:24:52;;;;;;;6.85;3.13;;;28.10;52.20;;;;;;5049176;28;20199;-53
2022/02/01 07:27:37;;;;;;;3.90;2.85;;;28.10;52.20;;;;;;5049210;28;20214;-52
2022/02/01 07:30:11;;;;;;;4.93;3.20;;;28.10;52.20;;;;;;5048811;28;20203;-45
2022/02/01 07:32:42;;;;;;;4.53;2.70;;;28.10;52.20;;;;;;5048998;28;20208;-48
2022/02/01 07:35:13;;;;;;;6.38;3.10;;;28.00;52.10;;;;;;5056062;28;20203;-42
2022/02/01 07:37:44;;;;;;;4.70;3.08;;;28.00;52.10;;;;;;5058079;28;20246;-55
2022/02/01 07:40:16;;;;;;;6.47;3.20;;;28.00;52.20;;;;;;5058813;28;20699;-48
2022/02/01 07:42:49;;;;;;;6.38;3.33;;;28.00;52.10;;;;;;5063811;28;20652;-52
2022/02/01 07:45:23;;;;;;;7.35;3.63;;;28.00;52.20;;;;;;5032312;28;20204;-44
2022/02/01 07:47:54;;;;;;;5.10;3.00;;;28.00;52.30;;;;;;5062841;28;20213;-43
2022/02/01 07:50:25;;;;;;;5.88;2.80;;;27.90;52.30;;;;;;5050395;28;20249;-51
2022/02/01 07:52:56;;;;;;;5.90;3.28;;;27.90;52.30;;;;;;5055106;28;20198;-50
2022/02/01 07:55:26;;;;;;;5.65;2.92;;;27.90;52.40;;;;;;5060707;28;20244;-43
2022/02/01 07:57:59;;;;;;;4.25;3.20;;;27.90;52.40;;;;;;5062314;28;20203;-46
2022/02/01 08:00:33;;;;;;;5.13;3.13;;;27.90;52.40;;;;;;5031831;28;20227;-47
2022/02/01 08:03:05;;;;;;;5.07;2.95;;;27.80;52.30;;;;;;5048681;28;20198;-42
2022/02/01 08:05:36;;;;;;;5.85;3.05;;;27.80;52.30;;;;;;5062836;28;20753;-41
2022/02/01 08:08:07;;;;;;;4.18;2.97;;;27.80;52.30;;;;;;5062626;28;20256;-48
2022/02/01 08:10:43;;;;;;;5.57;3.30;;;27.80;52.30;;;;;;5063016;28;20650;-50
2022/02/01 08:14:18;;;;;;;4.00;2.95;;;27.80;52.40;;;;;;5064254;28;20229;-50
2022/02/01 08:21:56;;;;;;;3.55;2.47;;;27.70;52.30;;;;;;5058155;28;20198;-47
2022/02/01 08:24:26;;;;;;;3.75;2.55;;;27.70;52.30;;;;;;5065234;28;20199;-45
2022/02/01 08:26:57;;;;;;;5.05;2.90;;;27.70;52.30;;;;;;5066881;28;20210;-52
2022/02/01 08:29:30;;;;;;;3.72;2.72;;;27.60;52.30;;;;;;5064325;28;20203;-54
2022/02/01 08:32:00;;;;;;;4.43;3.08;;;27.60;52.30;;;;;;5063242;28;20202;-52
2022/02/01 08:34:31;;;;;;;4.65;2.92;;;27.60;52.30;;;;;;5065180;28;20199;-48
2022/02/01 08:37:01;;;;;;;5.78;3.05;;;27.60;52.30;;;;;;5063148;28;20211;-39
2022/02/01 08:39:32;;;;;;;5.65;3.20;;;27.60;52.40;;;;;;5063130;28;20206;-43
2022/02/01 08:42:02;;;;;;;6.78;3.17;;;27.50;52.30;;;;;;5063419;28;20202;-48
2022/02/01 08:44:35;;;;;;;5.50;3.13;;;27.50;52.40;;;;;;5065999;28;20331;-44
2022/02/01 08:47:08;;;;;;;5.32;2.97;;;27.50;52.40;;;;;;5063575;28;20313;-43
2022/02/01 08:49:39;;;;;;;5.32;3.15;;;27.50;52.40;;;;;;5063543;28;20194;-41
2022/02/01 08:52:13;;;;;;;3.28;2.75;;;27.50;52.40;;;;;;5061603;28;20240;-40
2022/02/01 08:54:50;;;;;;;5.00;3.15;;;27.50;52.40;;;;;;5063410;28;20207;-43
2022/02/01 08:57:25;;;;;;;5.13;3.10;;;27.40;52.40;;;;;;5061836;28;20647;-43
2022/02/01 09:00:04;;;;;;;4.18;2.83;;;27.40;52.40;;;;;;5063149;28;20575;-41
2022/02/01 09:02:34;;;;;;;3.72;2.58;;;27.40;52.40;;;;;;5066073;28;20194;-40
2022/02/01 09:05:09;;;;;;;5.65;3.17;;;27.40;52.40;;;;;;5061572;28;20195;-40
2022/02/01 09:07:40;;;;;;;3.30;2.70;;;27.40;52.40;;;;;;5064053;28;20291;-43
2022/02/01 09:10:11;;;;;;;5.03;3.08;;;27.30;52.40;;;;;;5062643;28;20217;-41
2022/02/01 09:12:42;;;;;;;5.75;2.90;;;27.30;52.40;;;;;;5062809;28;20212;-43
2022/02/01 09:15:19;;;;;;;3.83;2.85;;;27.30;52.40;;;;;;5064107;28;20651;-44
2022/02/01 09:17:51;;;;;;;5.15;3.20;;;27.30;52.40;;;;;;5063563;28;20195;-40
2022/02/01 09:20:21;;;;;;;4.55;2.83;;;27.30;52.40;;;;;;5065525;28;20276;-42
2022/02/01 09:22:53;;;;;;;4.70;3.15;;;27.20;52.40;;;;;;5061738;28;20727;-40
2022/02/01 09:25:24;;;;;;;3.90;2.90;;;27.20;52.40;;;;;;5062747;28;20268;-40
2022/02/01 09:27:55;;;;;;;4.57;3.13;;;27.20;52.40;;;;;;5063515;28;20719;-46
2022/02/01 09:30:27;;;;;;;4.57;2.80;;;27.20;52.50;;;;;;5063711;28;20272;-41
2022/02/01 09:32:59;;;;;;;4.55;3.17;;;27.10;52.40;;;;;;5062183;28;20199;-48
2022/02/01 09:35:29;;;;;;;4.32;2.95;;;27.10;52.50;;;;;;5065061;28;20209;-47
2022/02/01 09:38:00;;;;;;;5.25;3.20;;;27.10;52.50;;;;;;5064151;28;20198;-50
2022/02/01 09:40:31;;;;;;;5.43;3.10;;;27.10;52.50;;;;;;5063728;28;20226;-40
2022/02/01 09:43:01;;;;;;;3.60;2.78;;;27.10;52.50;;;;;;5063455;28;20252;-40
2022/02/01 09:45:36;;;;;;;4.68;3.10;;;27.10;52.50;;;;;;5065503;28;20198;-43
2022/02/01 09:48:07;;;;;;;4.45;3.20;;;27.00;52.40;;;;;;5066203;28;20226;-44
2022/02/01 09:50:38;;;;;;;6.35;3.25;;;27.00;52.50;;;;;;5066735;28;20248;-49
2022/02/01 09:53:08;;;;;;;3.88;2.90;;;27.00;52.40;;;;;;5069042;28;20216;-44
2022/02/01 09:55:39;;;;;;;4.25;2.88;;;27.00;52.40;;;;;;5066861;28;20638;-46
2022/02/01 09:58:11;;;;;;;3.38;2.72;;;27.00;52.50;;;;;;5066017;28;20210;-40
2022/02/01 10:00:47;;;;;;;4.82;3.15;;;26.90;52.40;;;;;;5066813;28;20218;-39
2022/02/01 10:03:22;;;;;;;4.15;2.53;;;26.90;52.50;;;;;;5064965;28;20222;-39
2022/02/01 10:06:08;;;;;;;3.55;2.63;;;26.90;52.50;;;;;;5065493;28;20226;-41
2022/02/01 10:08:39;;;;;;;3.95;3.35;;;26.90;52.50;;;;;;5064755;28;20192;-41
2022/02/01 10:11:11;;;;;;;4.95;3.10;;;26.90;52.50;;;;;;5066741;28;20200;-49
2022/02/01 10:13:45;;;;;;;4.97;2.92;;;26.80;52.50;;;;;;5067253;28;20201;-44
2022/02/01 10:16:28;;;;;;;4.40;2.70;;;26.80;52.50;;;;;;5066315;28;20223;-50
2022/02/01 10:19:09;;;;;;;3.63;2.90;;;26.80;52.50;;;;;;5067795;28;20557;-42
2022/02/01 10:21:52;;;;;;;3.67;2.90;;;26.80;52.50;;;;;;5066775;28;20214;-49
2022/02/01 10:24:33;;;;;;;3.70;2.58;;;26.80;52.60;;;;;;5065954;28;20191;-50
2022/02/01 10:27:13;;;;;;;3.72;2.50;;;26.70;52.50;;;;;;5066044;28;20284;-56
2022/02/01 10:30:01;;;;;;;3.63;2.65;;;26.70;52.50;;;;;;5063628;28;20206;-47
2022/02/01 10:32:50;;;;;;;3.00;2.70;;;26.70;52.50;;;;;;5065810;28;20199;-53
2022/02/01 10:35:26;;;;;;;3.53;2.90;;;26.70;52.50;;;;;;5065136;28;20289;-43
2022/02/01 10:38:01;;;;;;;2.85;2.50;;;26.70;52.50;;;;;;5067304;28;20205;-50
2022/02/01 10:40:42;;;;;;;4.18;2.90;;;26.60;52.50;;;;;;5067301;28;20260;-43
2022/02/01 10:43:23;;;;;;;2.97;2.50;;;26.60;52.50;;;;;;5067462;28;20240;-54
2022/02/01 10:45:55;;;;;;;3.47;2.42;;;26.60;52.50;;;;;;5062902;28;20760;-48
2022/02/01 10:48:28;;;;;;;4.95;3.13;;;26.60;52.50;;;;;;5062100;28;20659;-41
2022/02/01 10:51:06;;;;;;;4.15;2.58;;;26.60;52.60;;;;;;5058319;28;20206;-46
2022/02/01 10:53:37;;;;;;;3.90;2.63;;;26.50;53.20;;;;;;5057052;28;20667;-39
2022/02/01 10:56:09;;;;;;;4.40;3.00;;;26.50;52.60;;;;;;5044864;28;20290;-39
2022/02/01 10:58:40;;;;;;;5.28;2.80;;;26.50;52.70;;;;;;5051473;28;20666;-44
2022/02/01 11:01:13;;;;;;;4.95;2.88;;;26.50;52.70;;;;;;5033255;28;20281;-45
2022/02/01 11:03:48;;;;;;;3.80;2.85;;;26.50;52.70;;;;;;5056644;28;20602;-41
2022/02/01 11:06:19;;;;;;;3.60;2.80;;;26.40;52.70;;;;;;5047054;28;20211;-41
2022/02/01 11:08:50;;;;;;;4.40;3.10;;;26.40;52.70;;;;;;5048221;28;20603;-47
2022/02/01 11:11:22;;;;;;;4.03;2.53;;;26.40;52.70;;;;;;5049483;28;20195;-43
2022/02/01 11:13:53;;;;;;;4.22;2.72;;;26.40;52.70;;;;;;5045664;28;20204;-47
2022/02/01 11:16:25;;;;;;;4.55;2.70;;;26.40;52.70;;;;;;5049476;28;20234;-39
2022/02/01 11:19:03;;;;;;;3.33;2.55;;;26.40;52.70;;;;;;5046208;28;20222;-48
2022/02/01 11:21:45;;;;;;;3.63;2.53;;;26.30;52.70;;;;;;5048225;28;20227;-47
2022/02/01 11:24:32;;;;;;;3.70;2.53;;;26.30;52.70;;;;;;5047564;28;20203;-49
2022/02/01 11:27:17;;;;;;;3.35;2.47;;;26.30;52.70;;;;;;5048441;28;20303;-51
2022/02/01 11:30:03;;;;;;;3.72;2.70;;;26.30;52.70;;;;;;5047064;28;20199;-50
2022/02/01 11:32:37;;;;;;;2.97;2.45;;;26.30;52.70;;;;;;5044786;28;20210;-47
2022/02/01 11:35:10;;;;;;;2.85;2.33;;;26.30;52.70;;;;;;5047265;28;20195;-49
2022/02/01 11:37:50;;;;;;;3.38;2.38;;;26.20;52.70;;;;;;5047312;28;20285;-55
2022/02/01 11:40:22;;;;;;;2.90;2.40;;;26.20;52.70;;;;;;5046633;28;20253;-52
2022/02/01 11:42:58;;;;;;;3.85;2.67;;;26.20;52.70;;;;;;5047955;28;20272;-41
2022/02/01 11:45:36;;;;;;;3.67;2.35;;;26.20;52.80;;;;;;5064347;28;20280;-51
2022/02/01 11:48:18;;;;;;;3.20;2.70;;;26.10;52.80;;;;;;5061694;28;20199;-42
2022/02/01 11:50:53;;;;;;;4.05;2.72;;;26.10;52.70;;;;;;5057993;28;20199;-55
2022/02/01 11:53:25;;;;;;;3.65;2.65;;;26.10;52.70;;;;;;5046399;28;20203;-50
2022/02/01 11:55:58;;;;;;;3.53;2.70;;;26.10;52.80;;;;;;5040824;28;20611;-42
2022/02/01 11:58:34;;;;;;;3.88;2.80;;;26.10;52.80;;;;;;5048555;28;20191;-49
2022/02/01 12:01:07;;;;;;;4.30;2.30;;;26.10;52.80;;;;;;5034885;28;20211;-44
2022/02/01 12:03:40;;;;;;;2.75;2.50;;;26.10;52.80;;;;;;5031248;28;20261;-46
2022/02/01 12:06:23;;;;;;;2.80;2.30;;;26.10;52.80;;;;;;5048327;28;20215;-47
2022/02/01 12:08:57;;;;;;;3.42;2.55;;;26.00;52.80;;;;;;5048502;28;20199;-43
2022/02/01 12:11:28;;;;;;;2.28;2.08;;;26.00;52.80;;;;;;5047535;28;20199;-46
2022/02/01 12:13:59;;;;;;;3.50;2.55;;;26.00;52.80;;;;;;5047534;28;20272;-41
2022/02/01 12:16:30;;;;;;;2.50;2.30;;;26.00;52.80;;;;;;5047903;28;20273;-39
2022/02/01 12:19:06;;;;;;;2.63;2.38;;;26.00;52.80;;;;;;5047625;28;20627;-40
2022/02/01 12:21:49;;;;;;;2.60;2.40;;;25.90;52.80;;;;;;5047807;28;20255;-40
2022/02/01 12:24:20;;;;;;;3.92;2.75;;;25.90;52.80;;;;;;5047549;28;20211;-50
2022/02/01 12:26:51;;;;;;;4.32;2.80;;;25.90;52.80;;;;;;5047459;28;20280;-46
2022/02/01 12:29:22;;;;;;;3.10;2.38;;;25.90;52.80;;;;;;5047578;28;20199;-43
2022/02/01 12:31:53;;;;;;;3.13;2.15;;;25.90;53.40;;;;;;5047368;28;20200;-40
2022/02/01 12:34:24;;;;;;;2.95;2.50;;;25.90;52.80;;;;;;5047397;28;20587;-49
2022/02/01 12:36:58;;;;;;;2.88;2.30;;;25.80;52.70;;;;;;5047423;28;20230;-53
2022/02/01 12:39:32;;;;;;;2.80;2.38;;;25.80;52.80;;;;;;5048548;28;20257;-46
2022/02/01 12:42:12;;;;;;;2.75;2.20;;;25.80;52.80;;;;;;5031440;28;20220;-47
2022/02/01 12:47:30;;;;;;;2.58;2.38;;;25.80;52.90;;;;;;5048511;28;20222;-39
2022/02/01 12:50:01;;;;;;;2.53;2.33;;;25.80;52.90;;;;;;5039314;28;20210;-40
2022/02/01 12:52:35;;;;;;;2.30;2.10;;;25.80;52.90;;;;;;5047259;28;20794;-42
2022/02/01 12:55:08;;;;;;;2.35;2.13;;;25.70;52.90;;;;;;5041160;28;20249;-56
2022/02/01 12:57:39;;;;;;;2.42;2.10;;;25.70;52.90;;;;;;5047121;28;20223;-50
2022/02/01 13:00:16;;;;;;;2.67;2.42;;;25.70;52.80;;;;;;5047397;28;20658;-47
2022/02/01 13:02:47;;;;;;;2.88;2.05;;;25.70;52.80;;;;;;5039322;28;20215;-47
2022/02/01 13:05:19;;;;;;;2.33;2.13;;;25.70;52.90;;;;;;5044163;28;20196;-47
2022/02/01 13:07:58;;;;;;;2.55;2.20;;;25.70;52.90;;;;;;5038655;28;20280;-39
2022/02/01 13:21:32;;;;;;;3.22;2.42;;;25.60;52.90;;;;;;5036660;28;20234;-42
2022/02/01 13:24:06;;;;;;;2.45;2.15;;;25.60;52.90;;;;;;5045836;28;20245;-46
2022/02/01 13:26:38;;;;;;;3.88;2.63;;;25.60;53.00;;;;;;5050486;28;20714;-46
2022/02/01 13:29:09;;;;;;;2.30;1.95;;;25.60;53.00;;;;;;5051045;28;20199;-44
2022/02/01 13:31:42;;;;;;;2.58;2.20;;;25.60;53.00;;;;;;5045732;28;20196;-47
2022/02/01 13:34:14;;;;;;;2.67;2.40;;;25.50;53.00;;;;;;5043085;28;20195;-42
2022/02/01 13:36:48;;;;;;;3.42;2.25;;;25.50;53.00;;;;;;5047441;28;20219;-40
2022/02/01 13:39:30;;;;;;;3.03;2.20;;;25.50;53.10;;;;;;5044264;28;20195;-40
2022/02/01 13:42:02;;;;;;;3.40;2.38;;;25.50;53.10;;;;;;5036044;28;20273;-40
2022/02/01 13:44:33;;;;;;;2.88;2.30;;;25.50;53.10;;;;;;5036236;28;20246;-45
2022/02/01 13:47:05;;;;;;;3.22;2.40;;;25.50;53.10;;;;;;5051269;28;20211;-41
2022/02/01 13:49:38;;;;;;;3.22;2.38;;;25.50;53.10;;;;;;5035493;28;20192;-44
2022/02/01 13:52:09;;;;;;;2.63;2.00;;;25.50;53.10;;;;;;5051016;28;20195;-40
2022/02/01 13:54:44;;;;;;;2.65;2.17;;;25.50;53.10;;;;;;5049839;28;20275;-46
2022/02/01 13:57:16;;;;;;;2.50;2.30;;;25.40;53.00;;;;;;5050890;28;20215;-53
2022/02/01 13:59:47;;;;;;;3.25;2.22;;;25.40;53.00;;;;;;5050511;28;20202;-40
2022/02/01 14:02:27;;;;;;;2.92;2.35;;;25.40;53.00;;;;;;5050305;28;20232;-54
2022/02/01 14:05:02;;;;;;;2.53;2.33;;;25.40;53.00;;;;;;5049800;28;20206;-41
2022/02/01 14:07:58;;;;;;;2.15;1.95;;;25.40;53.00;;;;;;5050194;28;20222;-40
2022/02/01 14:10:40;;;;;;;3.08;2.10;;;25.40;53.00;;;;;;5036467;28;20559;-46
2022/02/01 15:18:07;;;;;;;2.00;1.90;;;25.20;53.10;;;;;;5079186;22;20272;-50
2022/02/01 15:20:38;;;;;;;2.00;1.85;;;25.10;53.10;;;;;;5070951;28;20256;-56
2022/02/01 15:23:09;;;;;;;2.28;1.90;;;25.10;53.00;;;;;;5071041;28;20272;-52
2022/02/01 15:25:39;;;;;;;2.30;2.10;;;25.10;53.00;;;;;;5070964;28;20206;-51
2022/02/01 15:28:11;;;;;;;3.15;2.03;;;25.10;53.00;;;;;;5050742;28;20206;-57
2022/02/01 15:30:41;;;;;;;2.22;2.03;;;25.10;53.10;;;;;;5050971;28;20758;-53
2022/02/01 15:33:15;;;;;;;1.90;1.80;;;25.10;53.00;;;;;;5050442;28;20221;-47
2022/02/01 15:35:46;;;;;;;2.00;1.88;;;25.10;53.10;;;;;;5050640;28;20195;-54